sensor_id;sensor_type;location;lat;lon;timestamp;P1;durP1;ratioP1;P2;durP2;ratioP2
33794;SDS011;51430;52.242;21.118;2023-06-14T00:02:28;20.50;;;16.60;;
33794;SDS011;51430;52.242;21.118;2023-06-14T00:04:57;17.40;;;15.40;;
33794;SDS011;51430;52.242;21.118;2023-06-14T00:07:37;16.40;;;14.70;;
33794;SDS011;51430;52.242;21.118;2023-06-14T00:10:10;15.90;;;14.30;;
33794;SDS011;51430;52.242;21.118;2023-06-14T00:12:40;15.20;;;13.20;;
33794;SDS011;51430;52.242;21.118;2023-06-14T00:15:08;13.80;;;12.30;;
33794;SDS011;51430;52.242;21.118;2023-06-14T00:17:38;15.20;;;12.60;;
33794;SDS011;51430;52.242;21.118;2023-06-14T00:20:08;13.30;;;11.80;;
33794;SDS011;51430;52.242;21.118;2023-06-14T00:22:37;13.70;;;11.90;;
33794;SDS011;51430;52.242;21.118;2023-06-14T00:25:06;13.90;;;11.80;;
33794;SDS011;51430;52.242;21.118;2023-06-14T00:27:46;15.50;;;11.30;;
33794;SDS011;51430;52.242;21.118;2023-06-14T00:30:13;13.20;;;11.90;;
33794;SDS011;51430;52.242;21.118;2023-06-14T00:32:42;12.60;;;11.30;;
33794;SDS011;51430;52.242;21.118;2023-06-14T00:35:11;13.30;;;11.30;;
33794;SDS011;51430;52.242;21.118;2023-06-14T00:37:39;12.60;;;11.30;;
33794;SDS011;51430;52.242;21.118;2023-06-14T00:40:07;13.50;;;12.00;;
33794;SDS011;51430;52.242;21.118;2023-06-14T00:42:35;13.60;;;10.90;;
33794;SDS011;51430;52.242;21.118;2023-06-14T00:45:03;13.40;;;11.60;;
33794;SDS011;51430;52.242;21.118;2023-06-14T00:47:32;12.50;;;11.00;;
33794;SDS011;51430;52.242;21.118;2023-06-14T00:50:00;13.00;;;11.60;;
33794;SDS011;51430;52.242;21.118;2023-06-14T00:52:29;12.80;;;11.50;;
33794;SDS011;51430;52.242;21.118;2023-06-14T00:54:57;13.30;;;12.00;;
33794;SDS011;51430;52.242;21.118;2023-06-14T00:57:24;13.40;;;11.90;;
33794;SDS011;51430;52.242;21.118;2023-06-14T00:59:53;13.30;;;12.00;;
33794;SDS011;51430;52.242;21.118;2023-06-14T01:02:23;14.30;;;12.10;;
33794;SDS011;51430;52.242;21.118;2023-06-14T01:04:52;13.10;;;11.90;;
33794;SDS011;51430;52.242;21.118;2023-06-14T01:13:21;13.60;;;12.20;;
33794;SDS011;51430;52.242;21.118;2023-06-14T01:15:55;13.50;;;12.10;;
33794;SDS011;51430;52.242;21.118;2023-06-14T01:18:24;13.70;;;12.20;;
33794;SDS011;51430;52.242;21.118;2023-06-14T01:20:53;13.70;;;12.20;;
33794;SDS011;51430;52.242;21.118;2023-06-14T01:23:22;17.90;;;12.50;;
33794;SDS011;51430;52.242;21.118;2023-06-14T01:25:52;13.30;;;12.10;;
33794;SDS011;51430;52.242;21.118;2023-06-14T01:28:21;14.40;;;12.50;;
33794;SDS011;51430;52.242;21.118;2023-06-14T01:30:50;13.50;;;12.10;;
33794;SDS011;51430;52.242;21.118;2023-06-14T01:33:21;13.80;;;12.00;;
33794;SDS011;51430;52.242;21.118;2023-06-14T01:35:52;13.60;;;12.40;;
33794;SDS011;51430;52.242;21.118;2023-06-14T01:38:23;14.20;;;11.80;;
33794;SDS011;51430;52.242;21.118;2023-06-14T01:40:54;13.40;;;11.90;;
33794;SDS011;51430;52.242;21.118;2023-06-14T01:43:25;13.60;;;11.80;;
33794;SDS011;51430;52.242;21.118;2023-06-14T01:45:54;12.10;;;11.00;;
33794;SDS011;51430;52.242;21.118;2023-06-14T01:48:25;13.40;;;12.10;;
33794;SDS011;51430;52.242;21.118;2023-06-14T01:50:53;12.70;;;11.40;;
33794;SDS011;51430;52.242;21.118;2023-06-14T01:53:21;12.70;;;11.40;;
33794;SDS011;51430;52.242;21.118;2023-06-14T01:55:49;12.30;;;11.10;;
33794;SDS011;51430;52.242;21.118;2023-06-14T01:58:17;13.60;;;12.00;;
33794;SDS011;51430;52.242;21.118;2023-06-14T02:00:45;12.50;;;11.30;;
33794;SDS011;51430;52.242;21.118;2023-06-14T02:03:13;13.40;;;12.00;;
33794;SDS011;51430;52.242;21.118;2023-06-14T02:05:40;13.50;;;11.60;;
33794;SDS011;51430;52.242;21.118;2023-06-14T02:08:09;14.00;;;12.30;;
33794;SDS011;51430;52.242;21.118;2023-06-14T02:10:37;12.70;;;11.50;;
33794;SDS011;51430;52.242;21.118;2023-06-14T02:13:05;12.90;;;11.60;;
33794;SDS011;51430;52.242;21.118;2023-06-14T02:15:32;13.70;;;12.20;;
33794;SDS011;51430;52.242;21.118;2023-06-14T02:18:04;12.60;;;11.40;;
33794;SDS011;51430;52.242;21.118;2023-06-14T02:20:32;13.40;;;11.90;;
33794;SDS011;51430;52.242;21.118;2023-06-14T02:23:02;12.90;;;11.60;;
33794;SDS011;51430;52.242;21.118;2023-06-14T02:25:30;13.00;;;11.70;;
33794;SDS011;51430;52.242;21.118;2023-06-14T02:27:58;13.20;;;11.90;;
33794;SDS011;51430;52.242;21.118;2023-06-14T02:30:26;13.80;;;12.50;;
33794;SDS011;51430;52.242;21.118;2023-06-14T02:32:53;13.60;;;12.30;;
33794;SDS011;51430;52.242;21.118;2023-06-14T02:35:21;13.50;;;12.20;;
33794;SDS011;51430;52.242;21.118;2023-06-14T02:37:52;14.60;;;12.10;;
33794;SDS011;51430;52.242;21.118;2023-06-14T02:40:20;13.50;;;12.20;;
33794;SDS011;51430;52.242;21.118;2023-06-14T02:42:48;13.10;;;11.50;;
33794;SDS011;51430;52.242;21.118;2023-06-14T02:45:17;13.80;;;12.40;;
33794;SDS011;51430;52.242;21.118;2023-06-14T02:47:45;13.90;;;12.60;;
33794;SDS011;51430;52.242;21.118;2023-06-14T02:50:13;13.30;;;12.10;;
33794;SDS011;51430;52.242;21.118;2023-06-14T02:52:42;13.00;;;11.80;;
33794;SDS011;51430;52.242;21.118;2023-06-14T02:55:12;12.90;;;11.70;;
33794;SDS011;51430;52.242;21.118;2023-06-14T02:57:40;12.70;;;11.60;;
33794;SDS011;51430;52.242;21.118;2023-06-14T03:00:08;12.30;;;11.30;;
33794;SDS011;51430;52.242;21.118;2023-06-14T03:02:37;13.20;;;11.90;;
33794;SDS011;51430;52.242;21.118;2023-06-14T03:05:05;13.00;;;11.80;;
33794;SDS011;51430;52.242;21.118;2023-06-14T03:07:34;14.50;;;12.50;;
33794;SDS011;51430;52.242;21.118;2023-06-14T03:10:02;13.20;;;11.90;;
33794;SDS011;51430;52.242;21.118;2023-06-14T03:12:31;13.30;;;11.90;;
33794;SDS011;51430;52.242;21.118;2023-06-14T03:14:59;12.90;;;11.60;;
33794;SDS011;51430;52.242;21.118;2023-06-14T03:17:32;12.70;;;11.60;;
33794;SDS011;51430;52.242;21.118;2023-06-14T03:20:01;14.00;;;11.80;;
33794;SDS011;51430;52.242;21.118;2023-06-14T03:22:29;11.90;;;10.90;;
33794;SDS011;51430;52.242;21.118;2023-06-14T03:24:58;14.00;;;12.60;;
33794;SDS011;51430;52.242;21.118;2023-06-14T03:27:27;13.60;;;12.10;;
33794;SDS011;51430;52.242;21.118;2023-06-14T03:29:56;13.80;;;12.40;;
33794;SDS011;51430;52.242;21.118;2023-06-14T03:38:00;12.90;;;10.10;;
33794;SDS011;51430;52.242;21.118;2023-06-14T03:40:30;13.50;;;12.20;;
33794;SDS011;51430;52.242;21.118;2023-06-14T03:42:58;13.10;;;11.90;;
33794;SDS011;51430;52.242;21.118;2023-06-14T03:45:26;13.80;;;12.50;;
33794;SDS011;51430;52.242;21.118;2023-06-14T03:47:54;14.10;;;12.70;;
33794;SDS011;51430;52.242;21.118;2023-06-14T03:50:22;13.90;;;12.50;;
33794;SDS011;51430;52.242;21.118;2023-06-14T03:52:50;13.80;;;12.30;;
33794;SDS011;51430;52.242;21.118;2023-06-14T03:55:18;12.60;;;11.30;;
33794;SDS011;51430;52.242;21.118;2023-06-14T03:57:48;12.50;;;11.40;;
33794;SDS011;51430;52.242;21.118;2023-06-14T04:00:16;12.30;;;11.20;;
33794;SDS011;51430;52.242;21.118;2023-06-14T04:02:45;13.10;;;11.80;;
33794;SDS011;51430;52.242;21.118;2023-06-14T04:05:13;13.10;;;11.80;;
33794;SDS011;51430;52.242;21.118;2023-06-14T04:07:47;13.90;;;12.50;;
33794;SDS011;51430;52.242;21.118;2023-06-14T04:10:16;13.80;;;12.50;;
33794;SDS011;51430;52.242;21.118;2023-06-14T04:12:43;13.90;;;12.50;;
33794;SDS011;51430;52.242;21.118;2023-06-14T04:15:11;13.50;;;12.30;;
33794;SDS011;51430;52.242;21.118;2023-06-14T04:17:48;14.40;;;12.50;;
33794;SDS011;51430;52.242;21.118;2023-06-14T04:20:16;13.30;;;11.90;;
33794;SDS011;51430;52.242;21.118;2023-06-14T04:22:44;13.00;;;11.60;;
33794;SDS011;51430;52.242;21.118;2023-06-14T04:25:12;13.80;;;11.60;;
33794;SDS011;51430;52.242;21.118;2023-06-14T04:27:40;13.00;;;11.80;;
33794;SDS011;51430;52.242;21.118;2023-06-14T04:30:09;13.20;;;11.90;;
33794;SDS011;51430;52.242;21.118;2023-06-14T04:32:38;12.70;;;11.40;;
33794;SDS011;51430;52.242;21.118;2023-06-14T04:35:07;13.00;;;11.60;;
33794;SDS011;51430;52.242;21.118;2023-06-14T04:37:35;13.50;;;12.20;;
33794;SDS011;51430;52.242;21.118;2023-06-14T04:40:07;12.60;;;11.30;;
33794;SDS011;51430;52.242;21.118;2023-06-14T04:42:39;12.30;;;11.20;;
33794;SDS011;51430;52.242;21.118;2023-06-14T04:45:08;11.80;;;10.70;;
33794;SDS011;51430;52.242;21.118;2023-06-14T04:47:37;12.10;;;10.80;;
33794;SDS011;51430;52.242;21.118;2023-06-14T04:50:06;12.40;;;10.80;;
33794;SDS011;51430;52.242;21.118;2023-06-14T04:52:34;11.60;;;10.60;;
33794;SDS011;51430;52.242;21.118;2023-06-14T04:55:03;11.70;;;10.50;;
33794;SDS011;51430;52.242;21.118;2023-06-14T04:57:33;11.90;;;10.30;;
33794;SDS011;51430;52.242;21.118;2023-06-14T05:00:01;11.90;;;10.30;;
33794;SDS011;51430;52.242;21.118;2023-06-14T05:02:33;11.10;;;10.10;;
33794;SDS011;51430;52.242;21.118;2023-06-14T05:05:04;12.50;;;10.90;;
33794;SDS011;51430;52.242;21.118;2023-06-14T05:07:35;12.10;;;10.60;;
33794;SDS011;51430;52.242;21.118;2023-06-14T05:10:06;13.50;;;10.70;;
33794;SDS011;51430;52.242;21.118;2023-06-14T05:12:35;12.20;;;10.90;;
33794;SDS011;51430;52.242;21.118;2023-06-14T05:15:05;11.40;;;10.30;;
33794;SDS011;51430;52.242;21.118;2023-06-14T05:17:33;11.00;;;10.10;;
33794;SDS011;51430;52.242;21.118;2023-06-14T05:20:03;12.30;;;11.00;;
33794;SDS011;51430;52.242;21.118;2023-06-14T05:22:32;12.40;;;11.10;;
33794;SDS011;51430;52.242;21.118;2023-06-14T05:25:00;11.70;;;10.50;;
33794;SDS011;51430;52.242;21.118;2023-06-14T05:27:28;11.80;;;10.60;;
33794;SDS011;51430;52.242;21.118;2023-06-14T05:29:56;12.20;;;11.10;;
33794;SDS011;51430;52.242;21.118;2023-06-14T05:32:26;11.70;;;10.50;;
33794;SDS011;51430;52.242;21.118;2023-06-14T05:34:54;12.60;;;10.30;;
33794;SDS011;51430;52.242;21.118;2023-06-14T05:37:22;11.50;;;10.30;;
33794;SDS011;51430;52.242;21.118;2023-06-14T05:39:50;11.90;;;10.40;;
33794;SDS011;51430;52.242;21.118;2023-06-14T05:42:18;12.10;;;11.00;;
33794;SDS011;51430;52.242;21.118;2023-06-14T05:44:46;11.90;;;10.70;;
33794;SDS011;51430;52.242;21.118;2023-06-14T05:47:13;12.00;;;10.90;;
33794;SDS011;51430;52.242;21.118;2023-06-14T05:49:41;11.60;;;10.50;;
33794;SDS011;51430;52.242;21.118;2023-06-14T05:52:09;11.70;;;10.60;;
33794;SDS011;51430;52.242;21.118;2023-06-14T05:54:39;11.80;;;10.60;;
33794;SDS011;51430;52.242;21.118;2023-06-14T05:57:07;11.90;;;10.70;;
33794;SDS011;51430;52.242;21.118;2023-06-14T05:59:35;11.80;;;10.50;;
33794;SDS011;51430;52.242;21.118;2023-06-14T06:02:02;12.50;;;10.60;;
33794;SDS011;51430;52.242;21.118;2023-06-14T06:04:30;11.90;;;10.70;;
33794;SDS011;51430;52.242;21.118;2023-06-14T06:06:59;11.30;;;10.30;;
33794;SDS011;51430;52.242;21.118;2023-06-14T06:09:27;11.60;;;10.50;;
33794;SDS011;51430;52.242;21.118;2023-06-14T06:11:55;12.10;;;10.80;;
33794;SDS011;51430;52.242;21.118;2023-06-14T06:14:23;11.90;;;10.60;;
33794;SDS011;51430;52.242;21.118;2023-06-14T06:16:51;12.60;;;11.10;;
33794;SDS011;51430;52.242;21.118;2023-06-14T06:19:20;12.80;;;11.30;;
33794;SDS011;51430;52.242;21.118;2023-06-14T06:21:48;12.30;;;11.20;;
33794;SDS011;51430;52.242;21.118;2023-06-14T06:24:16;12.10;;;10.90;;
33794;SDS011;51430;52.242;21.118;2023-06-14T06:26:44;12.50;;;11.20;;
33794;SDS011;51430;52.242;21.118;2023-06-14T06:29:12;14.00;;;11.70;;
33794;SDS011;51430;52.242;21.118;2023-06-14T06:31:40;14.50;;;11.90;;
33794;SDS011;51430;52.242;21.118;2023-06-14T06:34:08;13.20;;;11.70;;
33794;SDS011;51430;52.242;21.118;2023-06-14T06:36:36;12.70;;;11.30;;
33794;SDS011;51430;52.242;21.118;2023-06-14T06:39:04;12.50;;;11.20;;
33794;SDS011;51430;52.242;21.118;2023-06-14T06:41:37;12.20;;;10.90;;
33794;SDS011;51430;52.242;21.118;2023-06-14T06:44:07;11.80;;;10.60;;
33794;SDS011;51430;52.242;21.118;2023-06-14T06:46:35;12.70;;;11.10;;
33794;SDS011;51430;52.242;21.118;2023-06-14T06:49:08;12.50;;;11.30;;
33794;SDS011;51430;52.242;21.118;2023-06-14T06:51:36;12.50;;;10.70;;
33794;SDS011;51430;52.242;21.118;2023-06-14T06:54:04;12.80;;;11.30;;
33794;SDS011;51430;52.242;21.118;2023-06-14T06:56:33;14.30;;;12.00;;
33794;SDS011;51430;52.242;21.118;2023-06-14T06:59:02;13.50;;;11.50;;
33794;SDS011;51430;52.242;21.118;2023-06-14T07:01:30;16.40;;;11.90;;
33794;SDS011;51430;52.242;21.118;2023-06-14T07:03:58;15.60;;;12.00;;
33794;SDS011;51430;52.242;21.118;2023-06-14T07:06:26;14.60;;;12.00;;
33794;SDS011;51430;52.242;21.118;2023-06-14T07:08:54;13.40;;;11.70;;
33794;SDS011;51430;52.242;21.118;2023-06-14T07:11:22;13.30;;;11.50;;
33794;SDS011;51430;52.242;21.118;2023-06-14T07:13:50;13.10;;;11.70;;
33794;SDS011;51430;52.242;21.118;2023-06-14T07:23:37;10.20;;;9.10;;
33794;SDS011;51430;52.242;21.118;2023-06-14T07:26:04;11.00;;;9.90;;
33794;SDS011;51430;52.242;21.118;2023-06-14T07:28:32;11.60;;;10.40;;
33794;SDS011;51430;52.242;21.118;2023-06-14T07:31:01;10.80;;;9.30;;
33794;SDS011;51430;52.242;21.118;2023-06-14T07:33:30;11.70;;;9.30;;
33794;SDS011;51430;52.242;21.118;2023-06-14T07:35:58;9.70;;;8.70;;
33794;SDS011;51430;52.242;21.118;2023-06-14T07:38:25;10.10;;;9.00;;
33794;SDS011;51430;52.242;21.118;2023-06-14T07:40:53;10.70;;;8.90;;
33794;SDS011;51430;52.242;21.118;2023-06-14T07:43:21;11.50;;;8.90;;
33794;SDS011;51430;52.242;21.118;2023-06-14T07:45:49;12.00;;;8.70;;
33794;SDS011;51430;52.242;21.118;2023-06-14T07:48:32;12.70;;;8.60;;
33794;SDS011;51430;52.242;21.118;2023-06-14T07:51:00;9.40;;;7.80;;
33794;SDS011;51430;52.242;21.118;2023-06-14T07:53:29;9.70;;;8.10;;
33794;SDS011;51430;52.242;21.118;2023-06-14T07:55:58;13.00;;;8.10;;
33794;SDS011;51430;52.242;21.118;2023-06-14T07:58:26;9.30;;;8.00;;
33794;SDS011;51430;52.242;21.118;2023-06-14T08:00:54;10.20;;;7.80;;
33794;SDS011;51430;52.242;21.118;2023-06-14T08:03:22;8.40;;;7.30;;
33794;SDS011;51430;52.242;21.118;2023-06-14T08:05:50;10.70;;;7.40;;
33794;SDS011;51430;52.242;21.118;2023-06-14T08:08:18;8.80;;;6.90;;
33794;SDS011;51430;52.242;21.118;2023-06-14T08:10:46;9.30;;;7.20;;
33794;SDS011;51430;52.242;21.118;2023-06-14T08:13:14;9.40;;;7.30;;
33794;SDS011;51430;52.242;21.118;2023-06-14T08:15:42;9.60;;;6.90;;
33794;SDS011;51430;52.242;21.118;2023-06-14T08:18:10;8.10;;;7.20;;
33794;SDS011;51430;52.242;21.118;2023-06-14T08:20:38;8.80;;;7.20;;
33794;SDS011;51430;52.242;21.118;2023-06-14T08:23:07;7.40;;;6.50;;
33794;SDS011;51430;52.242;21.118;2023-06-14T08:25:36;9.60;;;6.80;;
33794;SDS011;51430;52.242;21.118;2023-06-14T08:28:04;7.40;;;6.60;;
33794;SDS011;51430;52.242;21.118;2023-06-14T08:30:32;8.00;;;6.40;;
33794;SDS011;51430;52.242;21.118;2023-06-14T08:33:00;9.90;;;6.90;;
33794;SDS011;51430;52.242;21.118;2023-06-14T08:35:42;7.80;;;6.10;;
33794;SDS011;51430;52.242;21.118;2023-06-14T08:38:10;8.50;;;6.60;;
33794;SDS011;51430;52.242;21.118;2023-06-14T08:40:40;8.50;;;6.40;;
33794;SDS011;51430;52.242;21.118;2023-06-14T08:43:09;9.90;;;6.30;;
33794;SDS011;51430;52.242;21.118;2023-06-14T08:45:37;9.50;;;6.00;;
33794;SDS011;51430;52.242;21.118;2023-06-14T08:48:06;7.60;;;6.30;;
33794;SDS011;51430;52.242;21.118;2023-06-14T08:50:35;9.30;;;5.70;;
33794;SDS011;51430;52.242;21.118;2023-06-14T08:53:07;6.60;;;5.80;;
33794;SDS011;51430;52.242;21.118;2023-06-14T08:55:38;7.70;;;6.00;;
33794;SDS011;51430;52.242;21.118;2023-06-14T08:58:10;7.60;;;5.80;;
33794;SDS011;51430;52.242;21.118;2023-06-14T09:00:42;8.20;;;6.10;;
33794;SDS011;51430;52.242;21.118;2023-06-14T09:03:10;9.10;;;6.10;;
33794;SDS011;51430;52.242;21.118;2023-06-14T09:05:41;9.30;;;6.40;;
33794;SDS011;51430;52.242;21.118;2023-06-14T09:08:10;8.10;;;6.40;;
33794;SDS011;51430;52.242;21.118;2023-06-14T09:10:39;8.30;;;6.10;;
33794;SDS011;51430;52.242;21.118;2023-06-14T09:13:08;7.40;;;6.20;;
33794;SDS011;51430;52.242;21.118;2023-06-14T09:15:36;9.50;;;5.90;;
33794;SDS011;51430;52.242;21.118;2023-06-14T09:18:04;7.30;;;5.70;;
33794;SDS011;51430;52.242;21.118;2023-06-14T09:20:33;7.20;;;5.70;;
33794;SDS011;51430;52.242;21.118;2023-06-14T09:23:02;11.20;;;5.20;;
33794;SDS011;51430;52.242;21.118;2023-06-14T09:25:41;6.80;;;5.00;;
33794;SDS011;51430;52.242;21.118;2023-06-14T09:28:11;6.30;;;4.80;;
33794;SDS011;51430;52.242;21.118;2023-06-14T09:30:39;8.10;;;4.80;;
33794;SDS011;51430;52.242;21.118;2023-06-14T09:33:07;6.70;;;4.80;;
33794;SDS011;51430;52.242;21.118;2023-06-14T09:35:36;8.10;;;4.90;;
33794;SDS011;51430;52.242;21.118;2023-06-14T09:38:04;7.90;;;5.00;;
33794;SDS011;51430;52.242;21.118;2023-06-14T09:40:34;6.20;;;4.70;;
33794;SDS011;51430;52.242;21.118;2023-06-14T09:43:06;7.50;;;4.60;;
33794;SDS011;51430;52.242;21.118;2023-06-14T09:45:38;7.60;;;5.10;;
33794;SDS011;51430;52.242;21.118;2023-06-14T09:48:07;7.60;;;5.10;;
33794;SDS011;51430;52.242;21.118;2023-06-14T09:50:36;6.60;;;5.10;;
33794;SDS011;51430;52.242;21.118;2023-06-14T09:53:08;9.30;;;4.90;;
33794;SDS011;51430;52.242;21.118;2023-06-14T09:55:40;6.80;;;4.60;;
33794;SDS011;51430;52.242;21.118;2023-06-14T09:58:10;5.00;;;4.00;;
33794;SDS011;51430;52.242;21.118;2023-06-14T10:00:39;7.00;;;4.20;;
33794;SDS011;51430;52.242;21.118;2023-06-14T10:03:15;12.50;;;4.60;;
33794;SDS011;51430;52.242;21.118;2023-06-14T10:05:49;8.50;;;4.60;;
33794;SDS011;51430;52.242;21.118;2023-06-14T10:08:19;11.80;;;5.20;;
33794;SDS011;51430;52.242;21.118;2023-06-14T10:10:53;20.90;;;5.70;;
33794;SDS011;51430;52.242;21.118;2023-06-14T10:13:23;12.20;;;4.40;;
33794;SDS011;51430;52.242;21.118;2023-06-14T10:24:04;6.50;;;3.70;;
33794;SDS011;51430;52.242;21.118;2023-06-14T10:26:35;6.50;;;3.80;;
33794;SDS011;51430;52.242;21.118;2023-06-14T10:29:09;6.60;;;3.80;;
33794;SDS011;51430;52.242;21.118;2023-06-14T10:31:44;5.70;;;3.60;;
33794;SDS011;51430;52.242;21.118;2023-06-14T10:34:27;4.70;;;3.50;;
33794;SDS011;51430;52.242;21.118;2023-06-14T10:39:32;6.40;;;3.30;;
33794;SDS011;51430;52.242;21.118;2023-06-14T10:42:05;4.60;;;3.50;;
33794;SDS011;51430;52.242;21.118;2023-06-14T10:44:38;4.40;;;3.60;;
33794;SDS011;51430;52.242;21.118;2023-06-14T10:47:13;5.90;;;3.80;;
33794;SDS011;51430;52.242;21.118;2023-06-14T10:50:27;8.50;;;4.30;;
33794;SDS011;51430;52.242;21.118;2023-06-14T10:52:55;5.00;;;3.70;;
33794;SDS011;51430;52.242;21.118;2023-06-14T10:55:23;5.70;;;3.90;;
33794;SDS011;51430;52.242;21.118;2023-06-14T10:57:52;6.40;;;4.10;;
33794;SDS011;51430;52.242;21.118;2023-06-14T11:00:27;4.70;;;4.00;;
33794;SDS011;51430;52.242;21.118;2023-06-14T11:05:55;5.10;;;3.80;;
33794;SDS011;51430;52.242;21.118;2023-06-14T11:11:18;6.20;;;4.30;;
33794;SDS011;51430;52.242;21.118;2023-06-14T11:13:48;7.40;;;4.30;;
33794;SDS011;51430;52.242;21.118;2023-06-14T11:16:21;7.00;;;4.20;;
33794;SDS011;51430;52.242;21.118;2023-06-14T11:18:56;6.20;;;4.20;;
33794;SDS011;51430;52.242;21.118;2023-06-14T11:21:24;5.90;;;3.90;;
33794;SDS011;51430;52.242;21.118;2023-06-14T11:23:54;4.60;;;3.70;;
33794;SDS011;51430;52.242;21.118;2023-06-14T11:26:29;4.90;;;3.10;;
33794;SDS011;51430;52.242;21.118;2023-06-14T11:28:59;4.20;;;2.90;;
33794;SDS011;51430;52.242;21.118;2023-06-14T11:35:55;4.50;;;2.90;;
33794;SDS011;51430;52.242;21.118;2023-06-14T11:38:23;3.90;;;3.00;;
33794;SDS011;51430;52.242;21.118;2023-06-14T11:40:51;4.20;;;2.90;;
33794;SDS011;51430;52.242;21.118;2023-06-14T11:43:18;5.40;;;2.80;;
33794;SDS011;51430;52.242;21.118;2023-06-14T11:45:48;4.60;;;3.00;;
33794;SDS011;51430;52.242;21.118;2023-06-14T11:48:42;5.30;;;2.80;;
33794;SDS011;51430;52.242;21.118;2023-06-14T11:51:10;4.30;;;2.50;;
33794;SDS011;51430;52.242;21.118;2023-06-14T11:53:38;3.80;;;2.50;;
33794;SDS011;51430;52.242;21.118;2023-06-14T11:56:07;3.90;;;2.70;;
33794;SDS011;51430;52.242;21.118;2023-06-14T11:58:35;3.50;;;2.50;;
33794;SDS011;51430;52.242;21.118;2023-06-14T12:05:21;3.20;;;2.10;;
33794;SDS011;51430;52.242;21.118;2023-06-14T12:07:50;4.20;;;2.10;;
33794;SDS011;51430;52.242;21.118;2023-06-14T12:10:26;3.50;;;2.00;;
33794;SDS011;51430;52.242;21.118;2023-06-14T12:12:59;4.80;;;2.40;;
33794;SDS011;51430;52.242;21.118;2023-06-14T12:15:27;2.60;;;2.20;;
33794;SDS011;51430;52.242;21.118;2023-06-14T12:18:00;6.70;;;2.20;;
33794;SDS011;51430;52.242;21.118;2023-06-14T12:20:31;4.10;;;2.20;;
33794;SDS011;51430;52.242;21.118;2023-06-14T12:22:59;3.90;;;2.10;;
33794;SDS011;51430;52.242;21.118;2023-06-14T12:25:29;3.60;;;2.20;;
33794;SDS011;51430;52.242;21.118;2023-06-14T12:28:03;3.20;;;2.00;;
33794;SDS011;51430;52.242;21.118;2023-06-14T12:30:34;4.60;;;2.10;;
33794;SDS011;51430;52.242;21.118;2023-06-14T12:33:04;3.90;;;2.10;;
33794;SDS011;51430;52.242;21.118;2023-06-14T12:35:33;3.90;;;2.20;;
33794;SDS011;51430;52.242;21.118;2023-06-14T12:38:01;4.80;;;2.20;;
33794;SDS011;51430;52.242;21.118;2023-06-14T12:40:31;2.60;;;2.00;;
33794;SDS011;51430;52.242;21.118;2023-06-14T12:42:59;4.30;;;2.20;;
33794;SDS011;51430;52.242;21.118;2023-06-14T12:45:27;4.00;;;2.00;;
33794;SDS011;51430;52.242;21.118;2023-06-14T12:47:56;4.00;;;2.10;;
33794;SDS011;51430;52.242;21.118;2023-06-14T12:50:24;4.50;;;1.80;;
33794;SDS011;51430;52.242;21.118;2023-06-14T12:52:53;4.90;;;1.90;;
33794;SDS011;51430;52.242;21.118;2023-06-14T12:55:21;4.20;;;2.10;;
33794;SDS011;51430;52.242;21.118;2023-06-14T12:57:49;4.80;;;2.10;;
33794;SDS011;51430;52.242;21.118;2023-06-14T13:00:19;3.10;;;1.90;;
33794;SDS011;51430;52.242;21.118;2023-06-14T13:02:48;3.10;;;2.70;;
33794;SDS011;51430;52.242;21.118;2023-06-14T13:05:16;4.30;;;1.90;;
33794;SDS011;51430;52.242;21.118;2023-06-14T13:07:44;2.10;;;1.90;;
33794;SDS011;51430;52.242;21.118;2023-06-14T13:10:12;3.70;;;2.10;;
33794;SDS011;51430;52.242;21.118;2023-06-14T13:12:40;3.90;;;2.00;;
33794;SDS011;51430;52.242;21.118;2023-06-14T13:15:08;3.00;;;2.20;;
33794;SDS011;51430;52.242;21.118;2023-06-14T13:17:36;4.30;;;2.30;;
33794;SDS011;51430;52.242;21.118;2023-06-14T13:20:06;3.50;;;2.10;;
33794;SDS011;51430;52.242;21.118;2023-06-14T13:22:35;2.80;;;2.10;;
33794;SDS011;51430;52.242;21.118;2023-06-14T13:25:08;5.70;;;1.90;;
33794;SDS011;51430;52.242;21.118;2023-06-14T13:27:38;4.60;;;1.90;;
33794;SDS011;51430;52.242;21.118;2023-06-14T13:30:06;3.70;;;1.90;;
33794;SDS011;51430;52.242;21.118;2023-06-14T13:32:35;3.20;;;2.10;;
33794;SDS011;51430;52.242;21.118;2023-06-14T13:35:03;2.90;;;1.90;;
33794;SDS011;51430;52.242;21.118;2023-06-14T13:37:33;3.60;;;1.90;;
33794;SDS011;51430;52.242;21.118;2023-06-14T13:40:01;3.50;;;2.00;;
33794;SDS011;51430;52.242;21.118;2023-06-14T13:42:32;4.00;;;1.90;;
33794;SDS011;51430;52.242;21.118;2023-06-14T13:45:00;7.90;;;2.50;;
33794;SDS011;51430;52.242;21.118;2023-06-14T13:47:33;5.10;;;2.10;;
33794;SDS011;51430;52.242;21.118;2023-06-14T13:50:03;3.50;;;2.00;;
33794;SDS011;51430;52.242;21.118;2023-06-14T13:52:34;6.20;;;2.30;;
33794;SDS011;51430;52.242;21.118;2023-06-14T13:55:02;5.90;;;2.10;;
33794;SDS011;51430;52.242;21.118;2023-06-14T13:57:33;2.20;;;1.90;;
33794;SDS011;51430;52.242;21.118;2023-06-14T14:00:01;2.70;;;1.80;;
33794;SDS011;51430;52.242;21.118;2023-06-14T14:02:35;2.80;;;2.20;;
33794;SDS011;51430;52.242;21.118;2023-06-14T14:05:04;3.40;;;2.10;;
33794;SDS011;51430;52.242;21.118;2023-06-14T14:07:33;3.60;;;2.20;;
33794;SDS011;51430;52.242;21.118;2023-06-14T14:10:02;3.70;;;2.30;;
33794;SDS011;51430;52.242;21.118;2023-06-14T14:12:32;3.60;;;1.90;;
33794;SDS011;51430;52.242;21.118;2023-06-14T14:15:00;3.00;;;2.10;;
33794;SDS011;51430;52.242;21.118;2023-06-14T14:17:30;3.90;;;2.00;;
33794;SDS011;51430;52.242;21.118;2023-06-14T14:19:58;4.80;;;2.10;;
33794;SDS011;51430;52.242;21.118;2023-06-14T14:22:26;3.20;;;2.10;;
33794;SDS011;51430;52.242;21.118;2023-06-14T14:24:54;3.30;;;2.20;;
33794;SDS011;51430;52.242;21.118;2023-06-14T14:27:22;3.50;;;2.20;;
33794;SDS011;51430;52.242;21.118;2023-06-14T14:29:50;2.60;;;2.30;;
33794;SDS011;51430;52.242;21.118;2023-06-14T14:32:18;3.90;;;2.50;;
33794;SDS011;51430;52.242;21.118;2023-06-14T14:34:46;3.90;;;2.30;;
33794;SDS011;51430;52.242;21.118;2023-06-14T14:37:13;2.90;;;2.20;;
33794;SDS011;51430;52.242;21.118;2023-06-14T14:39:44;3.40;;;2.30;;
33794;SDS011;51430;52.242;21.118;2023-06-14T14:42:12;3.10;;;2.20;;
33794;SDS011;51430;52.242;21.118;2023-06-14T14:44:41;3.30;;;2.10;;
33794;SDS011;51430;52.242;21.118;2023-06-14T14:47:08;4.50;;;2.40;;
33794;SDS011;51430;52.242;21.118;2023-06-14T14:49:37;3.10;;;2.20;;
33794;SDS011;51430;52.242;21.118;2023-06-14T14:52:05;2.80;;;2.00;;
33794;SDS011;51430;52.242;21.118;2023-06-14T14:54:50;4.30;;;2.00;;
33794;SDS011;51430;52.242;21.118;2023-06-14T14:57:18;4.00;;;2.20;;
33794;SDS011;51430;52.242;21.118;2023-06-14T14:59:46;2.70;;;2.00;;
33794;SDS011;51430;52.242;21.118;2023-06-14T15:02:13;2.80;;;2.00;;
33794;SDS011;51430;52.242;21.118;2023-06-14T15:04:41;4.70;;;2.00;;
33794;SDS011;51430;52.242;21.118;2023-06-14T15:07:09;4.10;;;2.10;;
33794;SDS011;51430;52.242;21.118;2023-06-14T15:09:38;4.10;;;2.20;;
33794;SDS011;51430;52.242;21.118;2023-06-14T15:12:06;3.10;;;2.00;;
33794;SDS011;51430;52.242;21.118;2023-06-14T15:14:35;3.30;;;2.40;;
33794;SDS011;51430;52.242;21.118;2023-06-14T15:17:03;3.90;;;2.20;;
33794;SDS011;51430;52.242;21.118;2023-06-14T15:19:35;3.80;;;2.30;;